sensor_id;sensor_type;location;lat;lon;timestamp;P1;durP1;ratioP1;P2;durP2;ratioP2
13731;SDS011;6937;56.096;12.664;2023-08-07T00:01:19;9.68;;;2.50;;
13731;SDS011;6937;56.096;12.664;2023-08-07T00:03:44;9.85;;;1.95;;
13731;SDS011;6937;56.096;12.664;2023-08-07T00:06:10;10.02;;;2.10;;
13731;SDS011;6937;56.096;12.664;2023-08-07T00:08:35;9.57;;;2.90;;
13731;SDS011;6937;56.096;12.664;2023-08-07T00:11:09;10.48;;;2.80;;
13731;SDS011;6937;56.096;12.664;2023-08-07T00:13:35;9.80;;;2.58;;
13731;SDS011;6937;56.096;12.664;2023-08-07T00:16:00;12.57;;;2.80;;
13731;SDS011;6937;56.096;12.664;2023-08-07T00:18:26;10.65;;;2.63;;
13731;SDS011;6937;56.096;12.664;2023-08-07T00:20:51;8.93;;;2.40;;
13731;SDS011;6937;56.096;12.664;2023-08-07T00:23:16;7.72;;;1.92;;
13731;SDS011;6937;56.096;12.664;2023-08-07T00:25:42;8.32;;;2.53;;
13731;SDS011;6937;56.096;12.664;2023-08-07T00:28:07;13.38;;;3.13;;
13731;SDS011;6937;56.096;12.664;2023-08-07T00:30:32;11.38;;;2.47;;
13731;SDS011;6937;56.096;12.664;2023-08-07T00:32:58;7.50;;;2.67;;
13731;SDS011;6937;56.096;12.664;2023-08-07T00:35:23;7.25;;;2.08;;
13731;SDS011;6937;56.096;12.664;2023-08-07T00:37:48;9.25;;;2.40;;
13731;SDS011;6937;56.096;12.664;2023-08-07T00:40:14;10.68;;;2.40;;
13731;SDS011;6937;56.096;12.664;2023-08-07T00:42:39;11.13;;;2.72;;
13731;SDS011;6937;56.096;12.664;2023-08-07T00:45:05;12.15;;;2.70;;
13731;SDS011;6937;56.096;12.664;2023-08-07T00:47:31;13.40;;;2.35;;
13731;SDS011;6937;56.096;12.664;2023-08-07T00:49:57;9.48;;;2.53;;
13731;SDS011;6937;56.096;12.664;2023-08-07T00:52:24;11.77;;;2.90;;
13731;SDS011;6937;56.096;12.664;2023-08-07T00:54:49;13.20;;;3.42;;
13731;SDS011;6937;56.096;12.664;2023-08-07T00:57:15;12.18;;;2.83;;
13731;SDS011;6937;56.096;12.664;2023-08-07T00:59:41;12.32;;;2.75;;
13731;SDS011;6937;56.096;12.664;2023-08-07T01:02:08;10.77;;;2.70;;
13731;SDS011;6937;56.096;12.664;2023-08-07T01:04:34;13.90;;;2.90;;
13731;SDS011;6937;56.096;12.664;2023-08-07T01:07:00;13.02;;;3.17;;
13731;SDS011;6937;56.096;12.664;2023-08-07T01:09:25;15.75;;;3.20;;
13731;SDS011;6937;56.096;12.664;2023-08-07T01:17:16;12.57;;;2.92;;
13731;SDS011;6937;56.096;12.664;2023-08-07T01:19:45;9.45;;;2.78;;
13731;SDS011;6937;56.096;12.664;2023-08-07T01:22:13;15.82;;;3.10;;
13731;SDS011;6937;56.096;12.664;2023-08-07T01:24:41;11.02;;;2.60;;
13731;SDS011;6937;56.096;12.664;2023-08-07T01:35:39;11.77;;;3.50;;
13731;SDS011;6937;56.096;12.664;2023-08-07T01:38:07;13.50;;;2.70;;
13731;SDS011;6937;56.096;12.664;2023-08-07T01:40:33;11.27;;;2.35;;
13731;SDS011;6937;56.096;12.664;2023-08-07T01:43:02;15.60;;;2.95;;
13731;SDS011;6937;56.096;12.664;2023-08-07T01:45:28;16.45;;;3.70;;
13731;SDS011;6937;56.096;12.664;2023-08-07T01:47:54;17.35;;;3.38;;
13731;SDS011;6937;56.096;12.664;2023-08-07T01:50:20;10.80;;;2.63;;
13731;SDS011;6937;56.096;12.664;2023-08-07T01:52:46;9.52;;;2.38;;
13731;SDS011;6937;56.096;12.664;2023-08-07T01:55:15;13.95;;;2.55;;
13731;SDS011;6937;56.096;12.664;2023-08-07T01:57:41;17.50;;;3.80;;
13731;SDS011;6937;56.096;12.664;2023-08-07T02:00:07;17.48;;;3.92;;
13731;SDS011;6937;56.096;12.664;2023-08-07T02:02:33;19.67;;;3.88;;
13731;SDS011;6937;56.096;12.664;2023-08-07T02:04:59;21.83;;;4.97;;
13731;SDS011;6937;56.096;12.664;2023-08-07T02:07:24;24.75;;;4.70;;
13731;SDS011;6937;56.096;12.664;2023-08-07T02:09:50;17.63;;;4.35;;
13731;SDS011;6937;56.096;12.664;2023-08-07T02:12:15;22.70;;;5.18;;
13731;SDS011;6937;56.096;12.664;2023-08-07T02:14:40;26.50;;;5.22;;
13731;SDS011;6937;56.096;12.664;2023-08-07T02:17:06;27.98;;;6.03;;
13731;SDS011;6937;56.096;12.664;2023-08-07T02:19:31;22.88;;;5.20;;
13731;SDS011;6937;56.096;12.664;2023-08-07T02:21:57;21.85;;;4.45;;
13731;SDS011;6937;56.096;12.664;2023-08-07T02:24:22;17.40;;;3.67;;
13731;SDS011;6937;56.096;12.664;2023-08-07T02:26:47;16.35;;;4.05;;
13731;SDS011;6937;56.096;12.664;2023-08-07T02:29:13;19.35;;;3.70;;
13731;SDS011;6937;56.096;12.664;2023-08-07T02:31:38;17.88;;;3.58;;
13731;SDS011;6937;56.096;12.664;2023-08-07T02:34:03;19.13;;;3.42;;
13731;SDS011;6937;56.096;12.664;2023-08-07T02:36:29;14.15;;;3.70;;
13731;SDS011;6937;56.096;12.664;2023-08-07T02:38:54;17.98;;;4.07;;
13731;SDS011;6937;56.096;12.664;2023-08-07T02:41:19;16.20;;;3.67;;
13731;SDS011;6937;56.096;12.664;2023-08-07T02:43:45;17.40;;;3.67;;
13731;SDS011;6937;56.096;12.664;2023-08-07T02:46:10;18.92;;;3.35;;
13731;SDS011;6937;56.096;12.664;2023-08-07T02:48:36;11.45;;;2.65;;
13731;SDS011;6937;56.096;12.664;2023-08-07T02:51:01;14.60;;;2.85;;
13731;SDS011;6937;56.096;12.664;2023-08-07T02:53:26;19.92;;;3.53;;
13731;SDS011;6937;56.096;12.664;2023-08-07T02:55:52;21.02;;;3.80;;
13731;SDS011;6937;56.096;12.664;2023-08-07T02:58:17;15.95;;;3.33;;
13731;SDS011;6937;56.096;12.664;2023-08-07T03:00:42;17.10;;;3.15;;
13731;SDS011;6937;56.096;12.664;2023-08-07T03:03:08;15.07;;;2.97;;
13731;SDS011;6937;56.096;12.664;2023-08-07T03:05:34;15.70;;;3.20;;
13731;SDS011;6937;56.096;12.664;2023-08-07T03:07:59;19.38;;;3.50;;
13731;SDS011;6937;56.096;12.664;2023-08-07T03:10:24;11.90;;;2.80;;
13731;SDS011;6937;56.096;12.664;2023-08-07T03:12:50;11.90;;;2.20;;
13731;SDS011;6937;56.096;12.664;2023-08-07T03:15:15;13.13;;;3.08;;
13731;SDS011;6937;56.096;12.664;2023-08-07T03:17:40;11.65;;;2.35;;
13731;SDS011;6937;56.096;12.664;2023-08-07T03:20:06;15.02;;;2.63;;
13731;SDS011;6937;56.096;12.664;2023-08-07T03:22:32;16.52;;;2.95;;
13731;SDS011;6937;56.096;12.664;2023-08-07T03:24:57;17.02;;;3.25;;
13731;SDS011;6937;56.096;12.664;2023-08-07T03:27:22;14.00;;;2.55;;
13731;SDS011;6937;56.096;12.664;2023-08-07T03:29:48;12.20;;;2.30;;
13731;SDS011;6937;56.096;12.664;2023-08-07T03:32:13;13.75;;;2.47;;
13731;SDS011;6937;56.096;12.664;2023-08-07T03:34:38;14.55;;;2.60;;
13731;SDS011;6937;56.096;12.664;2023-08-07T03:37:04;14.23;;;2.67;;
13731;SDS011;6937;56.096;12.664;2023-08-07T03:39:29;14.43;;;2.80;;
13731;SDS011;6937;56.096;12.664;2023-08-07T03:41:54;17.88;;;2.75;;
13731;SDS011;6937;56.096;12.664;2023-08-07T03:44:20;17.13;;;3.20;;
13731;SDS011;6937;56.096;12.664;2023-08-07T03:46:45;16.30;;;2.83;;
13731;SDS011;6937;56.096;12.664;2023-08-07T03:49:10;15.32;;;2.90;;
13731;SDS011;6937;56.096;12.664;2023-08-07T03:51:36;15.27;;;3.53;;
13731;SDS011;6937;56.096;12.664;2023-08-07T03:54:01;12.48;;;2.63;;
13731;SDS011;6937;56.096;12.664;2023-08-07T03:56:26;13.25;;;3.17;;
13731;SDS011;6937;56.096;12.664;2023-08-07T03:58:52;18.02;;;2.65;;
13731;SDS011;6937;56.096;12.664;2023-08-07T04:01:17;16.80;;;3.05;;
13731;SDS011;6937;56.096;12.664;2023-08-07T04:03:42;13.63;;;2.65;;
13731;SDS011;6937;56.096;12.664;2023-08-07T04:06:08;12.05;;;2.17;;
13731;SDS011;6937;56.096;12.664;2023-08-07T04:08:35;14.55;;;2.50;;
13731;SDS011;6937;56.096;12.664;2023-08-07T04:11:01;8.75;;;1.77;;
13731;SDS011;6937;56.096;12.664;2023-08-07T04:13:28;11.18;;;2.38;;
13731;SDS011;6937;56.096;12.664;2023-08-07T04:15:53;8.05;;;1.35;;
13731;SDS011;6937;56.096;12.664;2023-08-07T04:18:19;11.35;;;1.70;;
13731;SDS011;6937;56.096;12.664;2023-08-07T04:20:54;11.85;;;2.33;;
13731;SDS011;6937;56.096;12.664;2023-08-07T04:23:20;9.77;;;1.88;;
13731;SDS011;6937;56.096;12.664;2023-08-07T04:25:49;10.55;;;2.25;;
13731;SDS011;6937;56.096;12.664;2023-08-07T04:28:17;8.20;;;1.80;;
13731;SDS011;6937;56.096;12.664;2023-08-07T04:30:43;13.55;;;2.53;;
13731;SDS011;6937;56.096;12.664;2023-08-07T04:33:09;14.32;;;2.20;;
13731;SDS011;6937;56.096;12.664;2023-08-07T04:35:35;10.55;;;2.00;;
13731;SDS011;6937;56.096;12.664;2023-08-07T04:38:01;11.07;;;2.78;;
13731;SDS011;6937;56.096;12.664;2023-08-07T04:40:27;10.63;;;2.13;;
13731;SDS011;6937;56.096;12.664;2023-08-07T04:42:53;10.20;;;1.58;;
13731;SDS011;6937;56.096;12.664;2023-08-07T04:45:19;12.05;;;1.90;;
13731;SDS011;6937;56.096;12.664;2023-08-07T04:47:44;6.63;;;1.83;;
13731;SDS011;6937;56.096;12.664;2023-08-07T04:50:09;6.10;;;1.60;;
13731;SDS011;6937;56.096;12.664;2023-08-07T04:52:35;9.40;;;1.65;;
13731;SDS011;6937;56.096;12.664;2023-08-07T04:55:00;9.00;;;1.67;;
13731;SDS011;6937;56.096;12.664;2023-08-07T04:57:26;9.75;;;1.80;;
13731;SDS011;6937;56.096;12.664;2023-08-07T04:59:51;10.77;;;1.95;;
13731;SDS011;6937;56.096;12.664;2023-08-07T05:02:17;9.10;;;1.80;;
13731;SDS011;6937;56.096;12.664;2023-08-07T05:04:43;10.30;;;1.63;;
13731;SDS011;6937;56.096;12.664;2023-08-07T05:07:08;11.43;;;2.58;;
13731;SDS011;6937;56.096;12.664;2023-08-07T05:09:34;12.88;;;2.30;;
13731;SDS011;6937;56.096;12.664;2023-08-07T05:12:00;8.98;;;2.00;;
13731;SDS011;6937;56.096;12.664;2023-08-07T05:14:25;10.05;;;1.95;;
13731;SDS011;6937;56.096;12.664;2023-08-07T05:16:50;8.48;;;1.70;;
13731;SDS011;6937;56.096;12.664;2023-08-07T05:19:16;8.88;;;1.60;;
13731;SDS011;6937;56.096;12.664;2023-08-07T05:21:41;6.22;;;1.40;;
13731;SDS011;6937;56.096;12.664;2023-08-07T05:24:06;9.05;;;1.88;;
13731;SDS011;6937;56.096;12.664;2023-08-07T05:26:32;7.38;;;1.48;;
13731;SDS011;6937;56.096;12.664;2023-08-07T05:28:57;5.82;;;1.17;;
13731;SDS011;6937;56.096;12.664;2023-08-07T05:31:24;7.15;;;1.20;;
13731;SDS011;6937;56.096;12.664;2023-08-07T05:33:50;5.28;;;1.40;;
13731;SDS011;6937;56.096;12.664;2023-08-07T05:36:15;8.07;;;1.52;;
13731;SDS011;6937;56.096;12.664;2023-08-07T05:38:41;5.95;;;1.45;;
13731;SDS011;6937;56.096;12.664;2023-08-07T05:41:08;11.40;;;1.80;;
13731;SDS011;6937;56.096;12.664;2023-08-07T05:43:34;6.47;;;1.13;;
13731;SDS011;6937;56.096;12.664;2023-08-07T05:45:59;6.80;;;1.27;;
13731;SDS011;6937;56.096;12.664;2023-08-07T05:48:24;6.18;;;1.23;;
13731;SDS011;6937;56.096;12.664;2023-08-07T05:50:51;10.32;;;1.30;;
13731;SDS011;6937;56.096;12.664;2023-08-07T05:53:16;9.23;;;1.70;;
13731;SDS011;6937;56.096;12.664;2023-08-07T05:55:42;7.03;;;1.45;;
13731;SDS011;6937;56.096;12.664;2023-08-07T05:58:07;6.35;;;1.42;;
13731;SDS011;6937;56.096;12.664;2023-08-07T06:00:33;8.30;;;1.88;;
13731;SDS011;6937;56.096;12.664;2023-08-07T06:02:58;6.88;;;1.27;;
13731;SDS011;6937;56.096;12.664;2023-08-07T06:05:24;9.10;;;1.50;;
13731;SDS011;6937;56.096;12.664;2023-08-07T06:07:49;10.65;;;1.80;;
13731;SDS011;6937;56.096;12.664;2023-08-07T06:10:15;10.60;;;1.83;;
13731;SDS011;6937;56.096;12.664;2023-08-07T06:12:40;8.60;;;1.67;;
13731;SDS011;6937;56.096;12.664;2023-08-07T06:15:06;8.25;;;1.60;;
13731;SDS011;6937;56.096;12.664;2023-08-07T06:17:31;12.93;;;2.00;;
13731;SDS011;6937;56.096;12.664;2023-08-07T06:19:57;8.52;;;1.42;;
13731;SDS011;6937;56.096;12.664;2023-08-07T06:22:22;10.85;;;1.77;;
13731;SDS011;6937;56.096;12.664;2023-08-07T06:24:48;10.82;;;2.30;;
13731;SDS011;6937;56.096;12.664;2023-08-07T06:27:14;7.63;;;1.30;;
13731;SDS011;6937;56.096;12.664;2023-08-07T06:29:39;7.57;;;1.80;;
13731;SDS011;6937;56.096;12.664;2023-08-07T06:32:05;6.97;;;1.33;;
13731;SDS011;6937;56.096;12.664;2023-08-07T06:34:31;5.88;;;1.42;;
13731;SDS011;6937;56.096;12.664;2023-08-07T06:36:56;11.63;;;2.10;;
13731;SDS011;6937;56.096;12.664;2023-08-07T06:39:22;10.13;;;2.25;;
13731;SDS011;6937;56.096;12.664;2023-08-07T06:41:47;7.88;;;1.52;;
13731;SDS011;6937;56.096;12.664;2023-08-07T06:44:12;9.90;;;1.67;;
13731;SDS011;6937;56.096;12.664;2023-08-07T06:46:38;10.70;;;1.65;;
13731;SDS011;6937;56.096;12.664;2023-08-07T06:49:03;9.45;;;1.98;;
13731;SDS011;6937;56.096;12.664;2023-08-07T06:51:28;8.27;;;2.00;;
13731;SDS011;6937;56.096;12.664;2023-08-07T06:53:54;9.88;;;1.98;;
13731;SDS011;6937;56.096;12.664;2023-08-07T06:56:19;7.10;;;1.67;;
13731;SDS011;6937;56.096;12.664;2023-08-07T06:58:44;8.02;;;1.45;;
13731;SDS011;6937;56.096;12.664;2023-08-07T07:01:10;9.00;;;1.35;;
13731;SDS011;6937;56.096;12.664;2023-08-07T07:03:35;5.18;;;1.08;;
13731;SDS011;6937;56.096;12.664;2023-08-07T07:06:00;9.63;;;1.65;;
13731;SDS011;6937;56.096;12.664;2023-08-07T07:08:26;9.07;;;1.70;;
13731;SDS011;6937;56.096;12.664;2023-08-07T07:10:51;10.88;;;1.88;;
13731;SDS011;6937;56.096;12.664;2023-08-07T07:13:17;9.55;;;2.25;;
13731;SDS011;6937;56.096;12.664;2023-08-07T07:15:42;12.70;;;2.70;;
13731;SDS011;6937;56.096;12.664;2023-08-07T07:18:08;13.40;;;3.08;;
13731;SDS011;6937;56.096;12.664;2023-08-07T07:20:33;16.08;;;2.83;;
13731;SDS011;6937;56.096;12.664;2023-08-07T07:22:58;12.27;;;2.50;;
13731;SDS011;6937;56.096;12.664;2023-08-07T07:25:24;12.07;;;3.05;;
13731;SDS011;6937;56.096;12.664;2023-08-07T07:27:49;12.88;;;3.10;;
13731;SDS011;6937;56.096;12.664;2023-08-07T07:30:14;14.73;;;2.60;;
13731;SDS011;6937;56.096;12.664;2023-08-07T07:32:40;14.38;;;2.78;;
13731;SDS011;6937;56.096;12.664;2023-08-07T07:35:05;12.18;;;1.98;;
13731;SDS011;6937;56.096;12.664;2023-08-07T07:37:31;11.68;;;2.75;;
13731;SDS011;6937;56.096;12.664;2023-08-07T07:39:57;10.15;;;2.42;;
13731;SDS011;6937;56.096;12.664;2023-08-07T07:42:22;9.18;;;2.30;;
13731;SDS011;6937;56.096;12.664;2023-08-07T07:44:47;10.50;;;2.08;;
13731;SDS011;6937;56.096;12.664;2023-08-07T07:47:13;5.95;;;1.80;;
13731;SDS011;6937;56.096;12.664;2023-08-07T07:49:38;6.35;;;1.70;;
13731;SDS011;6937;56.096;12.664;2023-08-07T07:52:03;6.55;;;1.75;;
13731;SDS011;6937;56.096;12.664;2023-08-07T07:54:30;10.48;;;1.77;;
13731;SDS011;6937;56.096;12.664;2023-08-07T07:56:56;9.13;;;2.42;;
13731;SDS011;6937;56.096;12.664;2023-08-07T07:59:21;9.95;;;1.65;;
13731;SDS011;6937;56.096;12.664;2023-08-07T08:01:46;9.40;;;2.17;;
13731;SDS011;6937;56.096;12.664;2023-08-07T08:04:12;15.98;;;2.55;;
13731;SDS011;6937;56.096;12.664;2023-08-07T08:06:37;12.45;;;2.63;;
13731;SDS011;6937;56.096;12.664;2023-08-07T08:09:03;11.40;;;2.63;;
13731;SDS011;6937;56.096;12.664;2023-08-07T08:11:30;11.50;;;2.70;;
13731;SDS011;6937;56.096;12.664;2023-08-07T08:13:55;12.02;;;2.97;;
13731;SDS011;6937;56.096;12.664;2023-08-07T08:16:21;11.40;;;2.70;;
13731;SDS011;6937;56.096;12.664;2023-08-07T08:18:46;14.68;;;3.28;;
13731;SDS011;6937;56.096;12.664;2023-08-07T08:21:12;10.73;;;2.42;;
13731;SDS011;6937;56.096;12.664;2023-08-07T08:23:37;10.00;;;2.45;;
13731;SDS011;6937;56.096;12.664;2023-08-07T08:26:02;11.80;;;2.90;;
13731;SDS011;6937;56.096;12.664;2023-08-07T08:28:28;15.55;;;3.22;;
13731;SDS011;6937;56.096;12.664;2023-08-07T08:30:53;14.57;;;2.83;;
13731;SDS011;6937;56.096;12.664;2023-08-07T08:33:18;10.90;;;2.58;;
13731;SDS011;6937;56.096;12.664;2023-08-07T08:35:44;12.40;;;2.83;;
13731;SDS011;6937;56.096;12.664;2023-08-07T08:38:09;13.60;;;3.20;;
13731;SDS011;6937;56.096;12.664;2023-08-07T08:40:35;14.80;;;3.22;;
13731;SDS011;6937;56.096;12.664;2023-08-07T08:43:03;12.10;;;2.40;;
13731;SDS011;6937;56.096;12.664;2023-08-07T08:45:30;9.73;;;2.45;;
13731;SDS011;6937;56.096;12.664;2023-08-07T08:48:01;13.10;;;2.70;;
13731;SDS011;6937;56.096;12.664;2023-08-07T08:50:29;14.55;;;2.65;;
13731;SDS011;6937;56.096;12.664;2023-08-07T08:52:57;9.75;;;2.55;;
13731;SDS011;6937;56.096;12.664;2023-08-07T08:55:24;7.35;;;1.83;;
13731;SDS011;6937;56.096;12.664;2023-08-07T08:57:51;9.55;;;2.53;;
13731;SDS011;6937;56.096;12.664;2023-08-07T09:00:18;13.18;;;2.72;;
13731;SDS011;6937;56.096;12.664;2023-08-07T09:02:46;12.73;;;3.00;;
13731;SDS011;6937;56.096;12.664;2023-08-07T09:05:15;15.20;;;3.30;;
13731;SDS011;6937;56.096;12.664;2023-08-07T09:07:42;11.18;;;2.60;;
13731;SDS011;6937;56.096;12.664;2023-08-07T09:10:07;14.00;;;2.45;;
13731;SDS011;6937;56.096;12.664;2023-08-07T09:12:36;13.40;;;3.05;;
13731;SDS011;6937;56.096;12.664;2023-08-07T09:15:06;13.98;;;3.10;;
13731;SDS011;6937;56.096;12.664;2023-08-07T09:17:34;12.55;;;3.20;;
13731;SDS011;6937;56.096;12.664;2023-08-07T09:20:05;12.38;;;2.50;;
13731;SDS011;6937;56.096;12.664;2023-08-07T09:22:31;11.70;;;2.50;;
13731;SDS011;6937;56.096;12.664;2023-08-07T09:24:57;12.52;;;2.83;;
13731;SDS011;6937;56.096;12.664;2023-08-07T09:27:25;9.05;;;2.17;;
13731;SDS011;6937;56.096;12.664;2023-08-07T09:29:50;11.70;;;2.50;;
13731;SDS011;6937;56.096;12.664;2023-08-07T09:32:15;13.35;;;2.60;;
13731;SDS011;6937;56.096;12.664;2023-08-07T09:34:43;13.43;;;2.55;;
13731;SDS011;6937;56.096;12.664;2023-08-07T09:37:09;17.48;;;3.20;;
13731;SDS011;6937;56.096;12.664;2023-08-07T09:39:35;17.83;;;3.40;;
13731;SDS011;6937;56.096;12.664;2023-08-07T09:42:04;14.25;;;2.80;;
13731;SDS011;6937;56.096;12.664;2023-08-07T09:44:37;15.60;;;2.92;;
13731;SDS011;6937;56.096;12.664;2023-08-07T09:47:13;9.15;;;2.95;;
13731;SDS011;6937;56.096;12.664;2023-08-07T09:49:42;12.38;;;2.83;;
13731;SDS011;6937;56.096;12.664;2023-08-07T09:52:09;13.20;;;2.60;;
13731;SDS011;6937;56.096;12.664;2023-08-07T09:54:36;10.88;;;3.22;;
13731;SDS011;6937;56.096;12.664;2023-08-07T09:57:02;15.63;;;3.42;;
13731;SDS011;6937;56.096;12.664;2023-08-07T09:59:28;14.80;;;2.70;;
13731;SDS011;6937;56.096;12.664;2023-08-07T10:01:54;13.05;;;3.25;;
13731;SDS011;6937;56.096;12.664;2023-08-07T10:04:23;12.25;;;3.10;;
13731;SDS011;6937;56.096;12.664;2023-08-07T10:06:49;11.00;;;3.15;;
13731;SDS011;6937;56.096;12.664;2023-08-07T10:09:16;13.90;;;2.72;;
13731;SDS011;6937;56.096;12.664;2023-08-07T10:11:41;11.30;;;2.53;;
13731;SDS011;6937;56.096;12.664;2023-08-07T10:14:08;14.10;;;2.85;;
13731;SDS011;6937;56.096;12.664;2023-08-07T10:16:34;10.23;;;2.50;;
13731;SDS011;6937;56.096;12.664;2023-08-07T10:19:04;15.52;;;3.47;;
13731;SDS011;6937;56.096;12.664;2023-08-07T10:21:30;13.20;;;2.83;;
13731;SDS011;6937;56.096;12.664;2023-08-07T10:24:00;10.63;;;2.63;;
13731;SDS011;6937;56.096;12.664;2023-08-07T10:26:28;12.93;;;2.70;;
13731;SDS011;6937;56.096;12.664;2023-08-07T10:28:54;12.90;;;2.85;;
13731;SDS011;6937;56.096;12.664;2023-08-07T10:31:21;14.30;;;2.75;;
13731;SDS011;6937;56.096;12.664;2023-08-07T10:33:48;18.88;;;3.25;;
13731;SDS011;6937;56.096;12.664;2023-08-07T10:36:15;12.35;;;2.92;;
13731;SDS011;6937;56.096;12.664;2023-08-07T10:38:42;20.75;;;3.42;;
13731;SDS011;6937;56.096;12.664;2023-08-07T10:41:08;12.25;;;2.67;;
13731;SDS011;6937;56.096;12.664;2023-08-07T10:43:41;17.48;;;3.03;;
13731;SDS011;6937;56.096;12.664;2023-08-07T10:46:09;20.77;;;3.55;;
13731;SDS011;6937;56.096;12.664;2023-08-07T10:48:46;16.30;;;3.67;;
13731;SDS011;6937;56.096;12.664;2023-08-07T10:51:13;11.20;;;2.88;;
13731;SDS011;6937;56.096;12.664;2023-08-07T10:53:40;13.48;;;3.08;;
13731;SDS011;6937;56.096;12.664;2023-08-07T10:56:10;11.65;;;2.58;;
13731;SDS011;6937;56.096;12.664;2023-08-07T10:58:40;12.07;;;3.05;;
13731;SDS011;6937;56.096;12.664;2023-08-07T11:01:15;13.25;;;3.20;;
13731;SDS011;6937;56.096;12.664;2023-08-07T11:03:51;11.55;;;2.88;;
13731;SDS011;6937;56.096;12.664;2023-08-07T11:06:21;11.82;;;3.33;;
13731;SDS011;6937;56.096;12.664;2023-08-07T11:08:49;22.10;;;4.00;;
13731;SDS011;6937;56.096;12.664;2023-08-07T11:11:15;14.85;;;3.25;;
13731;SDS011;6937;56.096;12.664;2023-08-07T11:13:41;19.08;;;3.80;;
13731;SDS011;6937;56.096;12.664;2023-08-07T11:16:07;14.48;;;3.03;;
13731;SDS011;6937;56.096;12.664;2023-08-07T11:18:32;15.70;;;3.28;;
13731;SDS011;6937;56.096;12.664;2023-08-07T11:20:58;10.65;;;2.40;;
13731;SDS011;6937;56.096;12.664;2023-08-07T11:23:24;11.85;;;2.00;;
13731;SDS011;6937;56.096;12.664;2023-08-07T11:25:51;8.82;;;2.58;;
13731;SDS011;6937;56.096;12.664;2023-08-07T11:28:17;10.05;;;2.47;;
13731;SDS011;6937;56.096;12.664;2023-08-07T11:30:44;9.82;;;2.50;;
13731;SDS011;6937;56.096;12.664;2023-08-07T11:33:12;12.07;;;2.83;;
13731;SDS011;6937;56.096;12.664;2023-08-07T11:35:40;13.85;;;2.35;;
13731;SDS011;6937;56.096;12.664;2023-08-07T11:38:07;10.05;;;2.47;;
13731;SDS011;6937;56.096;12.664;2023-08-07T11:40:33;9.57;;;2.20;;
13731;SDS011;6937;56.096;12.664;2023-08-07T11:42:58;14.90;;;3.72;;
13731;SDS011;6937;56.096;12.664;2023-08-07T11:45:24;10.75;;;2.63;;
13731;SDS011;6937;56.096;12.664;2023-08-07T11:47:49;12.80;;;3.20;;
13731;SDS011;6937;56.096;12.664;2023-08-07T11:50:14;10.30;;;2.42;;
13731;SDS011;6937;56.096;12.664;2023-08-07T11:52:40;9.98;;;2.25;;
13731;SDS011;6937;56.096;12.664;2023-08-07T11:55:06;7.70;;;1.90;;
13731;SDS011;6937;56.096;12.664;2023-08-07T11:57:33;12.00;;;2.08;;
13731;SDS011;6937;56.096;12.664;2023-08-07T11:59:59;10.75;;;2.05;;
13731;SDS011;6937;56.096;12.664;2023-08-07T12:02:24;10.68;;;2.10;;
13731;SDS011;6937;56.096;12.664;2023-08-07T12:04:50;9.23;;;2.60;;
13731;SDS011;6937;56.096;12.664;2023-08-07T12:07:18;11.70;;;2.55;;
13731;SDS011;6937;56.096;12.664;2023-08-07T12:09:45;14.88;;;2.78;;
13731;SDS011;6937;56.096;12.664;2023-08-07T12:12:12;17.55;;;3.28;;
13731;SDS011;6937;56.096;12.664;2023-08-07T12:14:38;16.67;;;3.15;;
13731;SDS011;6937;56.096;12.664;2023-08-07T12:17:03;8.77;;;2.58;;
13731;SDS011;6937;56.096;12.664;2023-08-07T12:19:36;12.77;;;2.58;;
13731;SDS011;6937;56.096;12.664;2023-08-07T12:22:03;15.73;;;3.20;;
13731;SDS011;6937;56.096;12.664;2023-08-07T12:24:31;17.45;;;4.30;;
13731;SDS011;6937;56.096;12.664;2023-08-07T12:26:56;15.32;;;3.30;;
13731;SDS011;6937;56.096;12.664;2023-08-07T12:29:21;15.30;;;3.38;;
13731;SDS011;6937;56.096;12.664;2023-08-07T12:31:48;12.73;;;3.15;;
13731;SDS011;6937;56.096;12.664;2023-08-07T12:34:13;10.55;;;3.03;;
13731;SDS011;6937;56.096;12.664;2023-08-07T12:36:39;10.85;;;3.17;;
13731;SDS011;6937;56.096;12.664;2023-08-07T12:39:04;14.07;;;3.55;;
13731;SDS011;6937;56.096;12.664;2023-08-07T12:41:31;19.10;;;4.18;;
13731;SDS011;6937;56.096;12.664;2023-08-07T12:43:57;20.33;;;4.38;;
13731;SDS011;6937;56.096;12.664;2023-08-07T12:46:24;11.10;;;2.90;;
13731;SDS011;6937;56.096;12.664;2023-08-07T12:48:49;11.50;;;3.70;;
13731;SDS011;6937;56.096;12.664;2023-08-07T12:51:15;16.55;;;3.40;;
13731;SDS011;6937;56.096;12.664;2023-08-07T12:53:41;13.57;;;3.58;;
13731;SDS011;6937;56.096;12.664;2023-08-07T12:56:06;11.27;;;2.97;;
13731;SDS011;6937;56.096;12.664;2023-08-07T12:58:32;9.57;;;2.72;;
13731;SDS011;6937;56.096;12.664;2023-08-07T13:00:57;10.77;;;2.60;;
13731;SDS011;6937;56.096;12.664;2023-08-07T13:03:22;10.80;;;2.75;;
13731;SDS011;6937;56.096;12.664;2023-08-07T13:05:48;18.25;;;3.45;;
13731;SDS011;6937;56.096;12.664;2023-08-07T13:08:13;18.77;;;3.88;;
13731;SDS011;6937;56.096;12.664;2023-08-07T13:10:39;9.52;;;3.00;;
13731;SDS011;6937;56.096;12.664;2023-08-07T13:13:04;7.13;;;2.85;;
13731;SDS011;6937;56.096;12.664;2023-08-07T13:15:30;13.02;;;3.97;;
13731;SDS011;6937;56.096;12.664;2023-08-07T13:17:56;12.25;;;3.40;;
13731;SDS011;6937;56.096;12.664;2023-08-07T13:20:21;14.80;;;3.85;;
13731;SDS011;6937;56.096;12.664;2023-08-07T13:22:46;14.40;;;4.25;;
13731;SDS011;6937;56.096;12.664;2023-08-07T13:25:12;16.13;;;3.90;;
13731;SDS011;6937;56.096;12.664;2023-08-07T13:27:38;17.30;;;3.78;;
13731;SDS011;6937;56.096;12.664;2023-08-07T13:30:04;19.13;;;4.22;;
13731;SDS011;6937;56.096;12.664;2023-08-07T13:32:30;17.63;;;4.18;;
13731;SDS011;6937;56.096;12.664;2023-08-07T13:34:57;13.27;;;2.78;;
13731;SDS011;6937;56.096;12.664;2023-08-07T13:37:22;10.50;;;2.88;;
13731;SDS011;6937;56.096;12.664;2023-08-07T13:39:48;15.88;;;2.95;;
13731;SDS011;6937;56.096;12.664;2023-08-07T13:42:15;10.35;;;2.55;;
13731;SDS011;6937;56.096;12.664;2023-08-07T13:44:41;8.18;;;2.65;;
13731;SDS011;6937;56.096;12.664;2023-08-07T13:47:06;10.77;;;2.47;;
13731;SDS011;6937;56.096;12.664;2023-08-07T13:49:32;10.93;;;2.70;;
13731;SDS011;6937;56.096;12.664;2023-08-07T13:51:57;11.35;;;3.08;;
13731;SDS011;6937;56.096;12.664;2023-08-07T13:54:23;9.88;;;2.45;;
13731;SDS011;6937;56.096;12.664;2023-08-07T13:56:48;7.95;;;2.17;;
13731;SDS011;6937;56.096;12.664;2023-08-07T13:59:14;8.13;;;1.73;;
13731;SDS011;6937;56.096;12.664;2023-08-07T14:01:39;11.60;;;2.55;;
13731;SDS011;6937;56.096;12.664;2023-08-07T14:04:04;10.88;;;2.67;;
13731;SDS011;6937;56.096;12.664;2023-08-07T14:06:30;12.05;;;2.70;;
13731;SDS011;6937;56.096;12.664;2023-08-07T14:08:55;8.50;;;2.60;;
13731;SDS011;6937;56.096;12.664;2023-08-07T14:11:21;13.50;;;2.60;;
13731;SDS011;6937;56.096;12.664;2023-08-07T14:13:49;10.35;;;2.85;;
13731;SDS011;6937;56.096;12.664;2023-08-07T14:16:14;15.52;;;3.60;;
13731;SDS011;6937;56.096;12.664;2023-08-07T14:18:40;13.93;;;3.72;;
13731;SDS011;6937;56.096;12.664;2023-08-07T14:21:05;13.30;;;3.40;;
13731;SDS011;6937;56.096;12.664;2023-08-07T14:23:31;12.75;;;3.15;;
13731;SDS011;6937;56.096;12.664;2023-08-07T14:25:56;14.93;;;3.42;;
13731;SDS011;6937;56.096;12.664;2023-08-07T14:28:21;14.48;;;3.50;;
13731;SDS011;6937;56.096;12.664;2023-08-07T14:30:47;14.95;;;3.80;;
13731;SDS011;6937;56.096;12.664;2023-08-07T14:33:12;9.63;;;3.03;;
13731;SDS011;6937;56.096;12.664;2023-08-07T14:35:38;12.10;;;3.33;;
13731;SDS011;6937;56.096;12.664;2023-08-07T14:38:03;15.45;;;3.67;;
13731;SDS011;6937;56.096;12.664;2023-08-07T14:40:28;16.05;;;4.22;;
13731;SDS011;6937;56.096;12.664;2023-08-07T14:42:54;17.63;;;4.30;;
13731;SDS011;6937;56.096;12.664;2023-08-07T14:45:20;13.85;;;4.10;;